createdAt,value
2023-04-17T00:00:27.890Z,49.01
2023-04-17T00:01:27.862Z,48.90
2023-04-17T00:02:27.979Z,48.90
2023-04-17T00:03:28.184Z,48.90
2023-04-17T00:04:28.004Z,48.90
2023-04-17T00:05:28.042Z,48.90
2023-04-17T00:06:27.930Z,48.90
2023-04-17T00:07:27.926Z,48.90
2023-04-17T00:08:27.957Z,48.90
2023-04-17T00:09:27.940Z,48.90
2023-04-17T00:10:27.965Z,48.90
2023-04-17T00:11:27.988Z,48.90
2023-04-17T00:12:28.012Z,48.80
2023-04-17T00:13:28.038Z,48.80
2023-04-17T00:14:28.053Z,48.80
2023-04-17T00:15:28.079Z,48.90
2023-04-17T00:16:28.179Z,49.01
2023-04-17T00:17:28.149Z,48.90
2023-04-17T00:18:28.239Z,48.90
2023-04-17T00:19:28.128Z,48.90
2023-04-17T00:20:28.127Z,48.90
2023-04-17T00:21:28.147Z,48.90
2023-04-17T00:22:28.204Z,48.90
2023-04-17T00:23:28.159Z,49.01
2023-04-17T00:24:28.183Z,48.90
2023-04-17T00:25:28.206Z,48.90
2023-04-17T00:26:28.232Z,48.90
2023-04-17T00:27:28.219Z,48.90
2023-04-17T00:28:28.256Z,48.90
2023-04-17T00:29:28.269Z,49.01
2023-04-17T00:30:28.310Z,48.90
2023-04-17T00:31:28.344Z,48.90
2023-04-17T00:32:28.381Z,49.01
2023-04-17T00:33:28.382Z,48.90
2023-04-17T00:34:28.386Z,49.01
2023-04-17T00:35:28.396Z,49.01
2023-04-17T00:36:28.405Z,48.90
2023-04-17T00:37:28.640Z,48.90
2023-04-17T00:38:28.452Z,48.90
2023-04-17T00:39:28.408Z,48.90
2023-04-17T00:40:28.426Z,48.90
2023-04-17T00:41:28.435Z,48.90
2023-04-17T00:42:28.456Z,48.90
2023-04-17T00:43:28.467Z,49.01
2023-04-17T00:44:28.483Z,49.01
2023-04-17T00:45:28.557Z,49.01
2023-04-17T00:46:28.513Z,48.90
2023-04-17T00:47:28.573Z,48.90
2023-04-17T00:48:28.561Z,48.90
2023-04-17T00:49:28.532Z,48.90
2023-04-17T00:50:28.572Z,48.90
2023-04-17T00:51:28.552Z,48.90
2023-04-17T00:52:28.562Z,48.90
2023-04-17T00:53:28.591Z,48.90
2023-04-17T00:54:28.619Z,48.90
2023-04-17T00:55:28.633Z,48.90
2023-04-17T00:56:28.639Z,48.90
2023-04-17T00:57:28.661Z,48.90
2023-04-17T00:58:28.678Z,48.90
2023-04-17T00:59:28.722Z,48.90
2023-04-17T01:00:28.721Z,48.90
2023-04-17T01:01:28.866Z,48.90
2023-04-17T01:02:28.854Z,48.90
2023-04-17T01:03:28.926Z,48.90
2023-04-17T01:04:28.835Z,48.90
2023-04-17T01:05:28.771Z,48.90
2023-04-17T01:06:28.799Z,48.80
2023-04-17T01:07:28.853Z,48.80
2023-04-17T01:08:28.853Z,48.90
2023-04-17T01:09:28.858Z,48.90
2023-04-17T01:10:28.894Z,48.90
2023-04-17T01:11:28.897Z,48.90
2023-04-17T01:12:28.933Z,48.90
2023-04-17T01:13:28.936Z,48.90
2023-04-17T01:14:28.947Z,48.90
2023-04-17T01:15:28.958Z,48.90
2023-04-17T01:16:29.015Z,48.80
2023-04-17T01:17:29.152Z,48.80
2023-04-17T01:18:29.000Z,48.90
2023-04-17T01:19:29.016Z,48.90
2023-04-17T01:20:29.031Z,48.90
2023-04-17T01:21:29.056Z,48.80
2023-04-17T01:22:29.089Z,48.80
2023-04-17T01:23:29.107Z,48.90
2023-04-17T01:24:29.146Z,48.90
2023-04-17T01:25:29.153Z,48.90
2023-04-17T01:26:29.199Z,48.90
2023-04-17T01:27:29.203Z,48.90
2023-04-17T01:28:29.226Z,48.90
2023-04-17T01:29:29.198Z,48.90
2023-04-17T01:30:29.240Z,48.90
2023-04-17T01:31:29.269Z,48.90
2023-04-17T01:32:29.244Z,48.90
2023-04-17T01:33:29.234Z,48.90
2023-04-17T01:34:29.272Z,48.90
2023-04-17T01:35:29.286Z,48.90
2023-04-17T01:36:29.305Z,48.90
2023-04-17T01:37:29.308Z,48.90
2023-04-17T01:38:29.318Z,48.90
2023-04-17T01:39:29.351Z,48.90
2023-04-17T01:40:29.331Z,48.90
2023-04-17T01:41:29.360Z,48.90
2023-04-17T01:42:29.425Z,48.90
2023-04-17T01:43:29.381Z,48.90
2023-04-17T01:44:29.413Z,48.80
2023-04-17T01:45:29.455Z,48.90
2023-04-17T01:46:29.474Z,48.90
2023-04-17T01:47:29.517Z,48.90
2023-04-17T01:48:29.477Z,48.90
2023-04-17T01:49:29.500Z,48.90
2023-04-17T01:50:29.528Z,48.90
2023-04-17T01:51:29.499Z,48.90
2023-04-17T01:52:29.513Z,48.90
2023-04-17T01:53:29.516Z,48.90
2023-04-17T01:54:29.552Z,48.80
2023-04-17T01:55:29.528Z,48.90
2023-04-17T01:56:29.552Z,48.90
2023-04-17T01:57:29.563Z,49.01
2023-04-17T01:58:29.613Z,49.02
2023-04-17T01:59:29.586Z,49.01
2023-04-17T02:00:29.641Z,48.90
2023-04-17T02:01:29.666Z,48.90
2023-04-17T02:02:29.722Z,48.90
2023-04-17T02:03:29.812Z,48.90
2023-04-17T02:04:29.734Z,48.90
2023-04-17T02:05:29.676Z,48.90
2023-04-17T02:06:29.650Z,48.90
2023-04-17T02:07:29.670Z,48.90
2023-04-17T02:08:29.719Z,48.90
2023-04-17T02:09:29.694Z,48.90
2023-04-17T02:10:29.754Z,48.90
2023-04-17T02:11:29.743Z,48.90
2023-04-17T02:12:29.721Z,48.90
2023-04-17T02:13:29.748Z,48.90
2023-04-17T02:14:29.785Z,48.90
2023-04-17T02:15:29.832Z,48.90
2023-04-17T02:16:29.845Z,48.90
2023-04-17T02:17:29.906Z,48.90
2023-04-17T02:18:29.811Z,48.90
2023-04-17T02:19:29.847Z,48.90
2023-04-17T02:20:29.848Z,48.80
2023-04-17T02:21:29.873Z,48.90
2023-04-17T02:22:29.890Z,48.90
2023-04-17T02:23:29.911Z,48.90
2023-04-17T02:24:29.924Z,48.90
2023-04-17T02:25:29.932Z,48.90
2023-04-17T02:26:29.963Z,48.90
2023-04-17T02:27:30.000Z,48.90
2023-04-17T02:28:29.972Z,48.80
2023-04-17T02:29:30.002Z,48.90
2023-04-17T02:30:30.051Z,48.90
2023-04-17T02:31:30.068Z,48.90
2023-04-17T02:32:30.064Z,48.90
2023-04-17T02:33:30.042Z,48.90
2023-04-17T02:34:30.283Z,48.80
2023-04-17T02:35:30.063Z,48.80
2023-04-17T02:36:30.061Z,48.90
2023-04-17T02:37:30.106Z,48.80
2023-04-17T02:38:30.078Z,48.90
2023-04-17T02:39:30.110Z,48.90
2023-04-17T02:40:30.134Z,48.90
2023-04-17T02:41:30.141Z,48.90
2023-04-17T02:42:30.158Z,48.90
2023-04-17T02:43:30.159Z,48.90
2023-04-17T02:44:30.200Z,48.90
2023-04-17T02:45:30.219Z,48.90
2023-04-17T02:46:30.293Z,48.90
2023-04-17T02:47:30.304Z,49.01
2023-04-17T02:48:30.277Z,48.90
2023-04-17T02:49:30.297Z,49.01
2023-04-17T02:50:30.300Z,49.01
2023-04-17T02:51:30.315Z,49.02
2023-04-17T02:52:30.348Z,49.02
2023-04-17T02:53:30.326Z,49.02
2023-04-17T02:54:30.356Z,49.01
2023-04-17T02:55:30.380Z,48.90
2023-04-17T02:56:30.407Z,48.90
2023-04-17T02:57:30.421Z,48.90
2023-04-17T02:58:30.432Z,48.90
2023-04-17T02:59:30.446Z,48.90
2023-04-17T03:00:30.477Z,48.90
2023-04-17T03:01:30.653Z,48.90
2023-04-17T03:02:30.791Z,48.90
2023-04-17T03:03:30.644Z,48.90
2023-04-17T03:04:30.488Z,48.90
2023-04-17T03:05:30.689Z,48.90
2023-04-17T03:06:30.538Z,48.90
2023-04-17T03:07:30.516Z,48.90
2023-04-17T03:08:33.011Z,48.90
2023-04-17T03:09:30.560Z,48.90
2023-04-17T03:10:30.574Z,48.90
2023-04-17T03:11:30.586Z,48.93
2023-04-17T03:12:30.594Z,49.02
2023-04-17T03:13:30.596Z,49.01
2023-04-17T03:14:30.620Z,49.01
2023-04-17T03:15:30.647Z,49.01
2023-04-17T03:16:30.699Z,48.90
2023-04-17T03:17:30.677Z,48.90
2023-04-17T03:18:30.680Z,48.90
2023-04-17T03:19:30.663Z,48.90
2023-04-17T03:20:30.711Z,49.01
2023-04-17T03:21:30.727Z,49.01
2023-04-17T03:22:30.740Z,49.02
2023-04-17T03:23:30.765Z,49.02
2023-04-17T03:24:30.775Z,49.02
2023-04-17T03:25:30.787Z,49.02
2023-04-17T03:26:30.815Z,49.02
2023-04-17T03:27:30.786Z,49.02
2023-04-17T03:28:30.811Z,49.02
2023-04-17T03:29:30.846Z,49.02
2023-04-17T03:30:30.882Z,49.02
2023-04-17T03:31:30.949Z,49.02
2023-04-17T03:32:30.984Z,48.93
2023-04-17T03:33:30.950Z,49.02
2023-04-17T03:34:30.996Z,49.01
2023-04-17T03:35:31.006Z,49.02
2023-04-17T03:36:30.985Z,49.02
2023-04-17T03:37:31.000Z,49.02
2023-04-17T03:38:31.004Z,49.02
2023-04-17T03:39:31.028Z,49.02
2023-04-17T03:40:33.152Z,49.02
2023-04-17T03:41:31.082Z,49.02
2023-04-17T03:42:31.122Z,49.02
2023-04-17T03:43:31.099Z,49.02
2023-04-17T03:44:31.106Z,49.02
2023-04-17T03:45:31.112Z,49.02
2023-04-17T03:46:31.157Z,49.02
2023-04-17T03:47:31.148Z,49.02
2023-04-17T03:48:31.127Z,49.02
2023-04-17T03:49:31.149Z,49.02
2023-04-17T03:50:31.253Z,49.02
2023-04-17T03:51:31.166Z,49.02
2023-04-17T03:52:31.394Z,49.02
2023-04-17T03:53:31.200Z,49.02
2023-04-17T03:54:31.206Z,49.02
2023-04-17T03:55:31.246Z,49.02
2023-04-17T03:56:31.248Z,49.02
2023-04-17T03:57:31.284Z,49.02
2023-04-17T03:58:31.310Z,49.02
2023-04-17T03:59:31.321Z,49.02
2023-04-17T04:00:31.308Z,49.02
2023-04-17T04:01:31.316Z,49.02
2023-04-17T04:02:31.402Z,48.93
2023-04-17T04:03:31.646Z,49.02
2023-04-17T04:04:31.520Z,48.93
2023-04-17T04:05:31.362Z,49.02
2023-04-17T04:06:31.526Z,49.02
2023-04-17T04:07:31.411Z,49.02
2023-04-17T04:08:31.425Z,49.02
2023-04-17T04:09:31.434Z,49.02
2023-04-17T04:10:31.449Z,49.02
2023-04-17T04:11:31.478Z,49.02
2023-04-17T04:12:31.510Z,49.02
2023-04-17T04:13:31.531Z,49.02
2023-04-17T04:14:31.563Z,49.02
2023-04-17T04:15:31.573Z,48.93
2023-04-17T04:16:31.639Z,49.02
2023-04-17T04:17:31.627Z,49.02
2023-04-17T04:18:31.597Z,49.02
2023-04-17T04:19:31.597Z,49.02
2023-04-17T04:20:31.624Z,48.93
2023-04-17T04:21:31.642Z,48.93
2023-04-17T04:22:31.723Z,48.93
2023-04-17T04:23:31.633Z,48.93
2023-04-17T04:24:31.643Z,48.93
2023-04-17T04:25:31.662Z,48.93
2023-04-17T04:26:31.646Z,48.93
2023-04-17T04:27:31.651Z,48.93
2023-04-17T04:28:31.666Z,48.93
2023-04-17T04:29:31.664Z,48.93
2023-04-17T04:30:31.684Z,48.93
2023-04-17T04:31:31.727Z,48.93
2023-04-17T04:32:31.725Z,48.93
2023-04-17T04:33:31.730Z,49.02
2023-04-17T04:34:31.748Z,48.93
2023-04-17T04:35:31.773Z,48.93
2023-04-17T04:36:31.787Z,48.93
2023-04-17T04:37:31.823Z,48.93
2023-04-17T04:38:31.855Z,48.93
2023-04-17T04:39:31.847Z,48.93
2023-04-17T04:40:31.852Z,48.93
2023-04-17T04:41:31.882Z,48.93
2023-04-17T04:42:31.853Z,48.93
2023-04-17T04:43:31.868Z,48.93
2023-04-17T04:44:31.869Z,48.93
2023-04-17T04:45:31.887Z,48.93
2023-04-17T04:46:31.948Z,48.93
2023-04-17T04:47:31.963Z,48.93
2023-04-17T04:48:31.950Z,48.93
2023-04-17T04:49:31.981Z,48.90
2023-04-17T04:50:31.999Z,48.93
2023-04-17T04:51:32.031Z,48.93
2023-04-17T04:52:32.017Z,48.93
2023-04-17T04:53:32.052Z,48.93
2023-04-17T04:54:32.114Z,48.93
2023-04-17T04:55:32.109Z,48.90
2023-04-17T04:56:33.128Z,48.80
2023-04-17T04:57:32.152Z,48.93
2023-04-17T04:58:32.161Z,48.93
2023-04-17T04:59:32.156Z,48.93
2023-04-17T05:01:58.285Z,48.93
2023-04-17T05:02:58.295Z,48.93
2023-04-17T05:03:58.263Z,49.02
2023-04-17T05:04:58.220Z,49.13
2023-04-17T05:05:58.121Z,49.22
2023-04-17T05:06:58.115Z,49.22
2023-04-17T05:07:58.120Z,49.33
2023-04-17T05:08:58.127Z,49.33
2023-04-17T05:09:58.169Z,49.33
2023-04-17T05:10:58.132Z,49.22
2023-04-17T05:11:58.167Z,49.33
2023-04-17T05:12:58.139Z,49.33
2023-04-17T05:13:58.152Z,49.43
2023-04-17T05:14:58.184Z,49.43
2023-04-17T05:16:00.317Z,49.33
2023-04-17T05:16:58.158Z,49.33
2023-04-17T05:17:58.239Z,49.22
2023-04-17T05:18:58.223Z,49.22
2023-04-17T05:19:58.186Z,49.22
2023-04-17T05:20:58.217Z,49.22
2023-04-17T05:21:58.208Z,49.22
2023-04-17T05:22:58.197Z,49.22
2023-04-17T05:23:58.186Z,49.22
2023-04-17T05:24:58.177Z,49.22
2023-04-17T05:25:58.321Z,49.22
2023-04-17T05:26:58.216Z,49.33
2023-04-17T05:27:58.242Z,49.33
2023-04-17T05:28:58.253Z,49.22
2023-04-17T05:29:58.265Z,49.22
2023-04-17T05:30:58.281Z,49.22
2023-04-17T05:31:58.343Z,49.13
2023-04-17T05:32:58.347Z,49.13
2023-04-17T05:33:58.324Z,49.02
2023-04-17T05:34:58.307Z,49.02
2023-04-17T05:35:58.364Z,49.01
2023-04-17T05:36:58.362Z,49.21
2023-04-17T05:37:58.327Z,49.10
2023-04-17T05:38:58.354Z,49.10
2023-04-17T05:39:58.405Z,49.10
2023-04-17T05:40:58.400Z,49.10
2023-04-17T05:41:58.421Z,49.01
2023-04-17T05:42:58.389Z,49.01
2023-04-17T05:43:58.373Z,49.10
2023-04-17T05:44:58.371Z,49.01
2023-04-17T05:45:58.402Z,49.01
2023-04-17T05:46:58.383Z,49.01
2023-04-17T05:47:58.411Z,48.90
2023-04-17T05:48:58.360Z,48.90
2023-04-17T05:49:58.390Z,48.90
2023-04-17T05:50:58.434Z,49.01
2023-04-17T05:51:58.419Z,49.01
2023-04-17T05:52:58.402Z,48.98
2023-04-17T05:53:58.420Z,48.98
2023-04-17T05:54:58.448Z,48.88
2023-04-17T05:55:58.512Z,48.88
2023-04-17T05:56:58.486Z,48.98
2023-04-17T05:57:58.525Z,48.88
2023-04-17T05:58:58.546Z,48.88
2023-04-17T05:59:58.569Z,48.98
2023-04-17T06:00:58.598Z,48.98
2023-04-17T06:01:58.695Z,48.88
2023-04-17T06:02:58.810Z,48.88
2023-04-17T06:03:58.817Z,48.98
2023-04-17T06:04:58.974Z,48.98
2023-04-17T06:05:58.714Z,48.98
2023-04-17T06:06:58.639Z,48.98
2023-04-17T06:07:58.660Z,48.98
2023-04-17T06:08:58.710Z,48.88
2023-04-17T06:09:58.685Z,48.88
2023-04-17T06:10:58.668Z,48.78
2023-04-17T06:11:58.702Z,48.78
2023-04-17T06:12:58.737Z,48.78
2023-04-17T06:13:58.809Z,48.68
2023-04-17T06:14:58.770Z,48.66
2023-04-17T06:15:58.806Z,48.66
2023-04-17T06:16:58.824Z,48.55
2023-04-17T06:17:58.837Z,48.55
2023-04-17T06:18:58.820Z,48.55
2023-04-17T06:19:58.843Z,48.55
2023-04-17T06:20:58.877Z,48.55
2023-04-17T06:21:58.849Z,48.46
2023-04-17T06:22:58.830Z,48.46
2023-04-17T06:23:58.849Z,48.46
2023-04-17T06:24:58.835Z,48.46
2023-04-17T06:25:58.877Z,48.46
2023-04-17T06:26:58.866Z,48.35
2023-04-17T06:27:58.867Z,48.35
2023-04-17T06:28:58.887Z,48.35
2023-04-17T06:29:58.961Z,48.35
2023-04-17T06:30:58.963Z,48.35
2023-04-17T06:31:58.931Z,48.35
2023-04-17T06:32:58.989Z,48.35
2023-04-17T06:33:58.932Z,48.35
2023-04-17T06:34:59.854Z,48.25
2023-04-17T06:35:58.948Z,48.35
2023-04-17T06:36:58.939Z,48.35
2023-04-17T06:37:58.958Z,48.35
2023-04-17T06:38:59.003Z,48.25
2023-04-17T06:39:59.091Z,48.25
2023-04-17T06:40:58.978Z,48.25
2023-04-17T06:41:59.004Z,48.16
2023-04-17T06:42:59.048Z,48.13
2023-04-17T06:43:59.024Z,48.23
2023-04-17T06:44:59.055Z,48.33
2023-04-17T06:45:59.139Z,48.33
2023-04-17T06:47:01.048Z,48.43
2023-04-17T06:47:59.096Z,48.43
2023-04-17T06:48:59.069Z,48.43
2023-04-17T06:49:59.092Z,48.43
2023-04-17T06:50:59.069Z,48.33
2023-04-17T06:52:00.754Z,48.43
2023-04-17T06:52:59.091Z,48.43
2023-04-17T06:53:59.106Z,48.53
2023-04-17T06:54:59.130Z,48.63
2023-04-17T06:55:59.146Z,48.63
2023-04-17T06:56:59.177Z,48.63
2023-04-17T06:57:59.227Z,48.63
2023-04-17T06:59:00.371Z,48.53
2023-04-17T06:59:59.219Z,48.43
2023-04-17T07:00:59.238Z,48.43
2023-04-17T07:01:59.667Z,48.31
2023-04-17T07:02:59.371Z,48.31
2023-04-17T07:03:59.473Z,48.21
2023-04-17T07:04:59.370Z,48.21
2023-04-17T07:05:59.290Z,48.11
2023-04-17T07:06:59.310Z,48.11
2023-04-17T07:07:59.327Z,48.11
2023-04-17T07:08:59.344Z,48.01
2023-04-17T07:09:59.368Z,47.91
2023-04-17T07:10:59.401Z,48.01
2023-04-17T07:11:59.394Z,47.91
2023-04-17T07:12:59.443Z,48.21
2023-04-17T07:13:59.413Z,47.99
2023-04-17T07:14:59.416Z,47.99
2023-04-17T07:15:59.567Z,47.99
2023-04-17T07:16:59.427Z,47.99
2023-04-17T07:17:59.526Z,48.08
2023-04-17T07:18:59.477Z,48.08
2023-04-17T07:19:59.493Z,48.19
2023-04-17T07:20:59.495Z,48.19
2023-04-17T07:21:59.518Z,48.28
2023-04-17T07:22:59.550Z,48.16
2023-04-17T07:23:59.564Z,48.26
2023-04-17T07:24:59.584Z,48.26
2023-04-17T07:25:59.582Z,48.36
2023-04-17T07:26:59.608Z,48.46
2023-04-17T07:27:59.624Z,48.57
2023-04-17T07:28:59.630Z,48.36
2023-04-17T07:29:59.606Z,48.26
2023-04-17T07:30:59.677Z,48.26
2023-04-17T07:31:59.726Z,48.16
2023-04-17T07:32:59.694Z,48.07
2023-04-17T07:33:59.674Z,47.96
2023-04-17T07:34:59.682Z,47.96
2023-04-17T07:35:59.697Z,47.96
2023-04-17T07:36:59.690Z,47.96
2023-04-17T07:38:00.902Z,47.96
2023-04-17T07:38:59.731Z,47.96
2023-04-17T07:39:59.754Z,47.86
2023-04-17T07:40:59.765Z,47.86
2023-04-17T07:41:59.793Z,47.86
2023-04-17T07:42:59.844Z,47.86
2023-04-17T07:43:59.815Z,47.86
2023-04-17T07:44:59.815Z,47.96
2023-04-17T07:45:59.853Z,47.96
2023-04-17T07:46:59.954Z,47.96
2023-04-17T07:47:59.986Z,47.96
2023-04-17T07:48:59.902Z,47.96
2023-04-17T07:49:59.993Z,47.96
2023-04-17T07:50:59.947Z,47.96
2023-04-17T07:51:59.964Z,47.86
2023-04-17T07:52:59.980Z,47.86
2023-04-17T07:54:00.002Z,47.86
2023-04-17T07:55:00.037Z,47.86
2023-04-17T07:56:00.051Z,47.76
2023-04-17T07:57:00.058Z,47.64
2023-04-17T07:58:00.075Z,47.64
2023-04-17T07:59:00.125Z,47.54
2023-04-17T08:00:00.086Z,47.44
2023-04-17T08:01:00.086Z,47.44
2023-04-17T08:02:00.189Z,47.34
2023-04-17T08:03:00.431Z,47.34
2023-04-17T08:04:00.338Z,47.34
2023-04-17T08:05:00.405Z,47.34
2023-04-17T08:06:00.336Z,47.24
2023-04-17T08:07:00.131Z,47.24
2023-04-17T08:08:00.192Z,47.24
2023-04-17T08:09:00.164Z,47.24
2023-04-17T08:10:00.102Z,47.34
2023-04-17T08:11:00.128Z,47.54
2023-04-17T08:12:00.117Z,47.54
2023-04-17T08:13:00.104Z,47.54
2023-04-17T08:14:00.134Z,47.64
2023-04-17T08:15:00.179Z,47.61
2023-04-17T08:16:00.153Z,47.52
2023-04-17T08:17:00.220Z,47.72
2023-04-17T08:18:00.224Z,47.61
2023-04-17T08:19:00.186Z,47.52
2023-04-17T08:20:00.184Z,47.52
2023-04-17T08:21:00.153Z,47.42
2023-04-17T08:22:00.160Z,47.42
2023-04-17T08:23:00.216Z,47.42
2023-04-17T08:24:00.192Z,47.42
2023-04-17T08:25:00.182Z,47.31
2023-04-17T08:26:00.162Z,47.31
2023-04-17T08:27:00.158Z,47.22
2023-04-17T08:28:00.167Z,47.22
2023-04-17T08:29:00.287Z,47.22
2023-04-17T08:30:00.234Z,47.11
2023-04-17T08:31:00.340Z,47.09
2023-04-17T08:32:12.692Z,46.99
2023-04-17T08:33:00.378Z,46.99
2023-04-17T08:34:12.893Z,46.99
2023-04-17T08:35:00.359Z,46.99
2023-04-17T08:36:02.206Z,46.89
2023-04-17T08:37:00.362Z,46.89
2023-04-17T08:38:00.451Z,46.99
2023-04-17T08:39:00.352Z,46.89
2023-04-17T08:40:00.330Z,47.19
2023-04-17T08:41:00.342Z,47.22
2023-04-17T08:42:00.381Z,47.31
2023-04-17T08:43:00.403Z,47.39
2023-04-17T08:44:00.414Z,47.30
2023-04-17T08:45:00.389Z,47.49
2023-04-17T08:46:00.462Z,47.61
2023-04-17T08:47:00.431Z,47.52
2023-04-17T08:48:00.504Z,47.69
2023-04-17T08:49:00.453Z,47.60
2023-04-17T08:50:00.437Z,47.60
2023-04-17T08:51:00.526Z,47.69
2023-04-17T08:52:02.286Z,47.69
2023-04-17T08:53:00.501Z,47.69
2023-04-17T08:54:00.658Z,47.60
2023-04-17T08:55:00.553Z,47.69
2023-04-17T08:56:02.374Z,47.69
2023-04-17T08:57:00.598Z,47.60
2023-04-17T08:58:01.422Z,47.69
2023-04-17T08:59:00.626Z,47.69
2023-04-17T09:00:00.628Z,47.60
2023-04-17T09:01:00.607Z,47.47
2023-04-17T09:02:00.772Z,47.67
2023-04-17T09:03:00.769Z,47.67
2023-04-17T09:04:00.763Z,47.47
2023-04-17T09:05:00.887Z,47.57
2023-04-17T09:06:00.652Z,47.37
2023-04-17T09:07:00.682Z,47.37
2023-04-17T09:08:00.669Z,47.37
2023-04-17T09:09:00.722Z,47.27
2023-04-17T09:10:00.786Z,47.27
2023-04-17T09:11:00.739Z,47.27
2023-04-17T09:12:00.738Z,47.17
2023-04-17T09:13:00.716Z,47.07
2023-04-17T09:14:00.748Z,46.97
2023-04-17T09:15:00.760Z,46.97
2023-04-17T09:16:00.825Z,46.85
2023-04-17T09:17:00.797Z,46.85
2023-04-17T09:18:00.897Z,46.75
2023-04-17T09:19:00.944Z,46.75
2023-04-17T09:20:00.852Z,46.65
2023-04-17T09:21:00.858Z,46.65
2023-04-17T09:22:00.896Z,46.75
2023-04-17T09:23:00.897Z,46.77
2023-04-17T09:24:01.312Z,46.77
2023-04-17T09:25:00.894Z,46.77
2023-04-17T09:26:00.928Z,46.67
2023-04-17T09:27:01.102Z,46.65
2023-04-17T09:28:00.904Z,46.55
2023-04-17T09:29:00.963Z,46.45
2023-04-17T09:30:00.969Z,46.35
2023-04-17T09:31:00.999Z,46.35
2023-04-17T09:32:01.060Z,46.25
2023-04-17T09:33:01.032Z,46.25
2023-04-17T09:34:00.999Z,46.25
2023-04-17T09:35:00.995Z,46.15
2023-04-17T09:36:00.984Z,46.15
2023-04-17T09:37:01.012Z,46.03
2023-04-17T09:38:01.053Z,45.93
2023-04-17T09:39:01.215Z,45.93
2023-04-17T09:40:01.078Z,45.73
2023-04-17T09:41:01.100Z,45.73
2023-04-17T09:42:03.455Z,45.63
2023-04-17T09:43:01.136Z,45.53
2023-04-17T09:44:01.163Z,45.40
2023-04-17T09:45:01.200Z,45.31
2023-04-17T09:46:01.190Z,45.21
2023-04-17T09:47:01.583Z,45.10
2023-04-17T09:48:01.342Z,45.01
2023-04-17T09:49:01.217Z,44.89
2023-04-17T09:50:01.244Z,44.89
2023-04-17T09:51:01.238Z,44.91
2023-04-17T09:52:01.332Z,44.91
2023-04-17T09:53:01.291Z,45.01
2023-04-17T09:54:01.304Z,45.01
2023-04-17T09:55:01.499Z,45.10
2023-04-17T09:56:01.403Z,45.10
2023-04-17T09:57:01.329Z,45.21
2023-04-17T09:58:01.380Z,45.43
2023-04-17T09:59:01.343Z,45.63
2023-04-17T10:00:01.379Z,45.65
2023-04-17T10:01:01.577Z,46.05
2023-04-17T10:02:01.512Z,46.35
2023-04-17T10:03:01.777Z,46.57
2023-04-17T10:04:01.745Z,46.47
2023-04-17T10:05:01.456Z,46.57
2023-04-17T10:06:01.465Z,46.67
2023-04-17T10:07:01.490Z,46.77
2023-04-17T10:08:01.481Z,46.77
2023-04-17T10:09:01.459Z,46.80
2023-04-17T10:10:01.492Z,46.77
2023-04-17T10:11:01.505Z,46.77
2023-04-17T10:12:01.506Z,46.77
2023-04-17T10:13:01.594Z,46.77
2023-04-17T10:14:01.535Z,46.80
2023-04-17T10:15:01.492Z,46.69
2023-04-17T10:16:01.629Z,46.80
2023-04-17T10:17:01.520Z,46.89
2023-04-17T10:18:01.571Z,46.89
2023-04-17T10:19:01.582Z,46.99
2023-04-17T10:20:01.622Z,47.09
2023-04-17T10:21:01.605Z,47.19
2023-04-17T10:22:01.627Z,47.30
2023-04-17T10:23:01.622Z,47.31
2023-04-17T10:24:01.638Z,47.42
2023-04-17T10:25:01.650Z,47.52
2023-04-17T10:26:01.711Z,47.52
2023-04-17T10:27:01.715Z,47.72
2023-04-17T10:28:01.666Z,47.72
2023-04-17T10:29:01.722Z,47.72
2023-04-17T10:30:01.732Z,47.81
2023-04-17T10:31:01.735Z,47.84
2023-04-17T10:32:01.763Z,47.94
2023-04-17T10:33:01.809Z,47.94
2023-04-17T10:34:01.745Z,47.94
2023-04-17T10:35:01.763Z,47.94
2023-04-17T10:36:01.761Z,47.94
2023-04-17T10:37:01.758Z,47.84
2023-04-17T10:38:01.852Z,47.84
2023-04-17T10:39:01.812Z,47.84
2023-04-17T10:40:01.847Z,47.84
2023-04-17T10:41:01.809Z,47.84
2023-04-17T10:42:01.786Z,47.84
2023-04-17T10:43:01.837Z,47.84
2023-04-17T10:44:01.801Z,47.94
2023-04-17T10:45:01.977Z,47.94
2023-04-17T10:46:02.065Z,47.94
2023-04-17T10:47:01.852Z,47.94
2023-04-17T10:48:01.945Z,47.84
2023-04-17T10:49:01.887Z,47.74
2023-04-17T10:50:01.874Z,47.84
2023-04-17T10:51:01.938Z,47.84
2023-04-17T10:52:01.932Z,47.84
2023-04-17T10:53:01.907Z,47.74
2023-04-17T10:54:01.896Z,47.74
2023-04-17T10:55:01.876Z,47.74
2023-04-17T10:56:01.936Z,47.74
2023-04-17T10:57:01.942Z,47.74
2023-04-17T10:58:01.925Z,47.64
2023-04-17T10:59:02.013Z,47.64
2023-04-17T11:00:01.966Z,47.54
2023-04-17T11:01:02.055Z,47.84
2023-04-17T11:02:02.172Z,47.94
2023-04-17T11:03:02.167Z,48.04
2023-04-17T11:04:02.050Z,48.04
2023-04-17T11:05:02.055Z,48.24
2023-04-17T11:06:01.972Z,48.24
2023-04-17T11:07:01.975Z,48.24
2023-04-17T11:08:02.002Z,48.24
2023-04-17T11:09:01.962Z,48.24
2023-04-17T11:10:02.013Z,48.34
2023-04-17T11:11:02.020Z,48.34
2023-04-17T11:12:02.387Z,48.24
2023-04-17T11:13:02.036Z,48.14
2023-04-17T11:14:02.015Z,47.74
2023-04-17T11:15:02.062Z,47.74
2023-04-17T11:16:02.058Z,47.64
2023-04-17T11:17:02.138Z,47.74
2023-04-17T11:18:02.099Z,47.74
2023-04-17T11:19:02.027Z,47.64
2023-04-17T11:20:02.063Z,47.64
2023-04-17T11:21:02.064Z,47.66
2023-04-17T11:22:02.146Z,47.76
2023-04-17T11:23:02.072Z,47.66
2023-04-17T11:24:02.112Z,47.66
2023-04-17T11:25:02.147Z,47.66
2023-04-17T11:26:02.198Z,47.66
2023-04-17T11:27:02.340Z,47.66
2023-04-17T11:28:02.203Z,47.66
2023-04-17T11:29:02.208Z,47.66
2023-04-17T11:30:02.240Z,47.66
2023-04-17T11:31:02.337Z,47.66
2023-04-17T11:32:02.232Z,47.66
2023-04-17T11:33:02.394Z,47.66
2023-04-17T11:34:02.266Z,47.76
2023-04-17T11:35:02.316Z,47.76
2023-04-17T11:36:02.248Z,47.76
2023-04-17T11:37:02.277Z,47.86
2023-04-17T11:38:02.258Z,47.96
2023-04-17T11:39:02.254Z,47.96
2023-04-17T11:40:02.313Z,48.07
2023-04-17T11:41:02.262Z,48.07
2023-04-17T11:42:02.306Z,48.16
2023-04-17T11:43:02.306Z,48.16
2023-04-17T11:44:02.272Z,48.19
2023-04-17T11:45:03.722Z,48.16
2023-04-17T11:46:02.329Z,48.19
2023-04-17T11:47:02.355Z,48.19
2023-04-17T11:48:02.367Z,48.19
2023-04-17T11:49:02.330Z,48.07
2023-04-17T11:50:02.330Z,48.07
2023-04-17T11:51:02.329Z,48.07
2023-04-17T11:52:02.447Z,48.07
2023-04-17T11:53:02.333Z,47.96
2023-04-17T11:54:02.313Z,47.96
2023-04-17T11:55:02.326Z,47.96
2023-04-17T11:56:02.329Z,47.86
2023-04-17T11:57:02.439Z,47.86
2023-04-17T11:58:02.380Z,47.76
2023-04-17T11:59:02.392Z,47.76
2023-04-17T12:00:02.407Z,47.66
2023-04-17T12:01:02.397Z,47.66
2023-04-17T12:02:02.577Z,47.66
2023-04-17T12:03:02.626Z,47.66
2023-04-17T12:04:02.610Z,47.66
2023-04-17T12:05:02.873Z,47.66
2023-04-17T12:06:02.535Z,47.66
2023-04-17T12:07:02.444Z,47.66
2023-04-17T12:08:02.476Z,47.66
2023-04-17T12:09:02.486Z,47.66
2023-04-17T12:10:02.549Z,47.66
2023-04-17T12:11:02.535Z,47.66
2023-04-17T12:12:02.509Z,47.66
2023-04-17T12:13:02.544Z,47.56
2023-04-17T12:14:02.580Z,47.54
2023-04-17T12:15:02.575Z,47.56
2023-04-17T12:16:02.692Z,47.66
2023-04-17T12:17:02.598Z,47.66
2023-04-17T12:18:02.662Z,47.76
2023-04-17T12:19:02.592Z,47.76
2023-04-17T12:20:02.575Z,47.86
2023-04-17T12:21:02.568Z,47.86
2023-04-17T12:22:02.616Z,47.96
2023-04-17T12:23:02.625Z,47.99
2023-04-17T12:24:02.704Z,47.99
2023-04-17T12:25:02.630Z,48.08
2023-04-17T12:26:02.624Z,48.08
2023-04-17T12:27:02.745Z,48.08
2023-04-17T12:28:02.673Z,48.08
2023-04-17T12:29:02.711Z,48.08
2023-04-17T12:30:02.687Z,48.08
2023-04-17T12:31:02.726Z,48.08
2023-04-17T12:32:02.838Z,48.08
2023-04-17T12:33:02.868Z,48.08
2023-04-17T12:34:02.768Z,48.08
2023-04-17T12:35:02.789Z,47.99
2023-04-17T12:36:02.946Z,48.08
2023-04-17T12:37:02.841Z,48.08
2023-04-17T12:38:02.912Z,48.08
2023-04-17T12:39:02.886Z,48.08
2023-04-17T12:40:02.889Z,48.08
2023-04-17T12:41:02.884Z,48.19
2023-04-17T12:42:02.891Z,48.08
2023-04-17T12:43:02.884Z,48.08
2023-04-17T12:44:02.875Z,48.19
2023-04-17T12:45:02.871Z,48.19
2023-04-17T12:46:02.941Z,48.19
2023-04-17T12:47:02.883Z,48.19
2023-04-17T12:48:02.927Z,48.19
2023-04-17T12:49:02.865Z,48.19
2023-04-17T12:50:02.890Z,48.19
2023-04-17T12:51:02.925Z,48.19
2023-04-17T12:52:04.037Z,48.19
2023-04-17T12:53:02.937Z,48.19
2023-04-17T12:54:02.990Z,48.19